Flight Track Log - Related Links

Times and Time Zones

All times are in EST time to prevent confusion due to time zone crossing. See the FLG4281 flight status page for this flight to view local times or setup timezone preferences in your user account.

Time Position Orientation Groundspeed Altitude Reporting Facility
EST Latitude Longitude Course Direction KTS MPH feet Rate Location/Type
Thu 05:24:18 PM 43.1075 -76.0953 115° Southeast 154 177 1,400  Level Boston Center
Thu 05:25:12 PM 43.0917 -76.0494 115° Southeast 176 203 3,900 2,974 Climbing Boston Center
Thu 05:26:13 PM 43.0319 -76.0367 171° South 245 282 7,100 2,951 Climbing Boston Center
Thu 05:27:14 PM 42.9972 -76.1111 237° Southwest 241 277 9,900 1,452 Climbing Boston Center
Thu 05:28:17 PM 42.9525 -76.1958 234° Southwest 273 314 10,100 48 Climbing Boston Center
Thu 05:29:18 PM 42.9031 -76.2939 235° Southwest 309 356 10,000 397 Descending Boston Center
Thu 05:30:18 PM 42.8519 -76.3928 235° Southwest 317 365 10,900 2,200 Climbing Boston Center
Thu 05:31:18 PM 42.7844 -76.4972 229° Southwest 335 386 14,400 2,952 Climbing Boston Center
Thu 05:32:22 PM 42.7036 -76.5594 210° Southwest 331 381 17,000 1,258 Climbing Boston Center
Thu 05:33:22 PM 42.6167 -76.6256 209° Southwest 352 405 17,000 248 Level Boston Center
Thu 05:34:23 PM 42.5303 -76.6917 209° Southwest 353 406 17,500 1,388 Climbing Boston Center
Thu 05:35:23 PM 42.4425 -76.7589 209° Southwest 359 413 19,800 2,423 Climbing Boston Center
Thu 05:36:07 PM 42.3722 -76.8161 211° Southwest 364 419 21,700 1,794 Climbing Cleveland Center
Thu 05:37:10 PM 42.2831 -76.8900 212° Southwest 371 427 23,000 990 Climbing Cleveland Center
Thu 05:37:44 PM 42.2256 -76.9372 211° Southwest 376 433 23,300 1,277 Climbing New York Center
Thu 05:38:44 PM 42.1342 -77.0125 211° Southwest 381 438 25,000 1,600 Climbing New York Center
Thu 05:39:14 PM 42.0981 -77.0428 212° Southwest 390 449 25,700 1,957 Climbing Cleveland Center
Thu 05:40:16 PM 42.0022 -77.1214 211° Southwest 399 459 28,000 2,129 Climbing Cleveland Center
Thu 05:41:18 PM 41.9094 -77.1964 211° Southwest 393 452 30,100 1,935 Climbing Cleveland Center
Thu 05:42:20 PM 41.7961 -77.2881 211° Southwest 392 451 32,000 919 Climbing Cleveland Center
Thu 05:43:22 PM 41.7019 -77.3667 212° Southwest 397 457 32,000  Level Cleveland Center
Thu 05:44:24 PM 41.6150 -77.4356 211° Southwest 402 463 32,000  Level Cleveland Center
Thu 05:45:26 PM 41.4978 -77.5322 212° Southwest 413 475 32,000  Level Cleveland Center
Thu 05:46:28 PM 41.3983 -77.6111 211° Southwest 414 476 32,000  Level Cleveland Center
Thu 05:47:31 PM 41.2981 -77.6906 211° Southwest 416 479 32,000  Level Cleveland Center
Thu 05:48:33 PM 41.1978 -77.7700 211° Southwest 417 480 32,000 387 Level Cleveland Center
Thu 05:49:35 PM 41.0989 -77.8481 211° Southwest 415 478 32,800 484 Climbing Cleveland Center
Thu 05:50:37 PM 41.0014 -77.9261 211° Southwest 411 473 33,000 97 Climbing Cleveland Center
Thu 05:51:39 PM 40.8881 -78.0275 214° Southwest 409 471 33,000 97 Level Cleveland Center
Thu 05:52:41 PM 40.8078 -78.1322 225° Southwest 403 464 33,200 484 Climbing Cleveland Center
Thu 05:53:43 PM 40.7283 -78.2339 224° Southwest 398 458 34,000 726 Climbing Cleveland Center
Thu 05:54:45 PM 40.6494 -78.3347 224° Southwest 395 455 34,700 919 Climbing Cleveland Center
Thu 05:55:47 PM 40.5697 -78.4372 224° Southwest 396 456 35,900 1,344 Climbing Cleveland Center
Thu 05:56:50 PM 40.4897 -78.5389 224° Southwest 397 457 37,500 1,008 Climbing Cleveland Center
Thu 05:57:52 PM 40.3983 -78.6544 224° Southwest 387 445 38,000 242 Climbing Cleveland Center
Thu 05:58:54 PM 40.3250 -78.7478 224° Southwest 373 429 38,000  Level Cleveland Center
Thu 05:59:56 PM 40.2492 -78.8439 224° Southwest 375 432 38,000  Level Cleveland Center
Thu 06:00:58 PM 40.1744 -78.9369 224° Southwest 375 432 38,000  Level Cleveland Center
Thu 06:02:00 PM 40.0989 -79.0353 225° Southwest 382 440 38,000  Level Cleveland Center
Thu 06:03:02 PM 40.0194 -79.1308 223° Southwest 382 440 38,000  Level Cleveland Center
Thu 06:04:04 PM 39.9414 -79.2281 224° Southwest 383 441 38,000  Level Cleveland Center
Thu 06:05:06 PM 39.8481 -79.3428 223° Southwest 383 441 38,000  Level Cleveland Center
Thu 06:06:08 PM 39.7706 -79.4392 224° Southwest 384 442 38,000  Level Cleveland Center
Thu 06:07:11 PM 39.6917 -79.5347 223° Southwest 384 442 38,000  Level Cleveland Center
Thu 06:08:13 PM 39.6142 -79.6292 223° Southwest 384 442 38,000  Level Cleveland Center
Thu 06:09:15 PM 39.5353 -79.7256 223° Southwest 385 443 38,000  Level Cleveland Center
Thu 06:10:17 PM 39.4567 -79.8208 223° Southwest 385 443 38,000  Level Cleveland Center
Thu 06:11:19 PM 39.3769 -79.9175 223° Southwest 390 449 38,000  Level Cleveland Center
Thu 06:13:26 PM 39.1997 -80.1336 223° Southwest 391 450 38,000  Level Indianapolis Center
Thu 06:14:28 PM 39.1203 -80.2294 223° Southwest 391 450 38,000  Level Indianapolis Center
Thu 06:15:30 PM 39.0397 -80.3264 223° Southwest 395 455 38,000  Level Indianapolis Center
Thu 06:16:32 PM 38.9589 -80.4225 223° Southwest 395 455 38,000  Level Indianapolis Center
Thu 06:17:34 PM 38.8778 -80.5178 222° Southwest 395 455 38,000  Level Indianapolis Center
Thu 06:18:36 PM 38.7828 -80.6331 223° Southwest 392 451 38,000  Level Indianapolis Center
Thu 06:19:38 PM 38.7008 -80.7294 223° Southwest 396 456 38,000  Level Indianapolis Center
Thu 06:20:40 PM 38.6175 -80.8253 222° Southwest 398 458 38,000 -581 Level Indianapolis Center
Thu 06:21:42 PM 38.5358 -80.9219 223° Southwest 399 459 36,800 -1,113 Descending Indianapolis Center
Thu 06:22:44 PM 38.4539 -81.0181 223° Southwest 397 457 35,700 -1,161 Descending Indianapolis Center
Thu 06:23:46 PM 38.3683 -81.1169 222° Southwest 407 468 34,400 -1,210 Descending Indianapolis Center
Thu 06:24:48 PM 38.2839 -81.2164 223° Southwest 409 471 33,200 -1,161 Descending Indianapolis Center
Thu 06:25:50 PM 38.2000 -81.3119 222° Southwest 403 464 32,000 -581 Descending Indianapolis Center
Thu 06:26:52 PM 38.1181 -81.4072 222° Southwest 398 458 32,000 -290 Level Indianapolis Center
Thu 06:27:54 PM 38.0172 -81.5228 222° Southwest 403 464 31,400 -1,065 Descending Indianapolis Center
Thu 06:28:56 PM 37.9350 -81.6167 222° Southwest 396 456 29,800 -1,500 Descending Indianapolis Center
Thu 06:29:58 PM 37.8519 -81.7125 222° Southwest 400 460 28,300 -1,500 Descending Indianapolis Center
Thu 06:31:00 PM 37.7619 -81.8142 222° Southwest 406 467 26,700 -1,500 Descending Indianapolis Center
Thu 06:32:02 PM 37.6781 -81.9078 221° Southwest 401 461 25,200 -1,452 Descending Indianapolis Center
Thu 06:33:04 PM 37.5972 -81.9994 222° Southwest 393 452 23,700 -1,597 Descending Indianapolis Center
Thu 06:34:06 PM 37.5214 -82.0864 222° Southwest 370 426 21,900 -1,790 Descending Indianapolis Center
Thu 06:35:08 PM 37.4392 -82.1786 222° Southwest 343 395 20,000 -919 Descending Indianapolis Center
Thu 06:36:10 PM 37.3683 -82.2600 222° Southwest 344 396 20,000  Level Indianapolis Center
Thu 06:37:12 PM 37.2942 -82.3419 221° Southwest 351 404 20,000  Level Indianapolis Center
Thu 06:38:14 PM 37.2197 -82.4239 221° Southwest 357 411 20,000  Level Indianapolis Center
Thu 06:39:16 PM 37.1450 -82.5075 222° Southwest 359 413 20,000  Level Indianapolis Center
Thu 06:40:18 PM 37.0700 -82.5903 221° Southwest 360 414 20,000  Level Indianapolis Center
Thu 06:41:20 PM 36.9811 -82.6881 221° Southwest 362 417 20,000  Level Indianapolis Center
Thu 06:42:22 PM 36.9047 -82.7728 222° Southwest 362 417 20,000  Level Indianapolis Center
Thu 06:43:24 PM 36.8269 -82.8608 222° Southwest 365 420 20,000  Level Indianapolis Center
Thu 06:44:26 PM 36.7517 -82.9472 223° Southwest 364 419 20,000 -339 Level Indianapolis Center
Thu 06:45:28 PM 36.6767 -83.0317 222° Southwest 362 417 19,300 -1,065 Descending Indianapolis Center
Thu 06:46:30 PM 36.6042 -83.1133 222° Southwest 353 406 17,800 -1,548 Descending Indianapolis Center
Thu 06:48:34 PM 36.4575 -83.2775 222° Southwest 354 407 14,500 -1,625 Descending Indianapolis Center
Thu 06:49:42 PM 36.3736 -83.3733 223° Southwest 356 410 12,600 -1,707 Descending Atlanta Center
Thu 06:50:37 PM 36.3008 -83.4519 221° Southwest 348 400 11,000 -1,385 Descending Indianapolis Center
Thu 06:51:39 PM 36.2425 -83.5158 221° Southwest 274 315 9,900 -1,452 Descending Indianapolis Center
Thu 06:52:41 PM 36.1917 -83.5736 223° Southwest 251 289 8,000 -1,714 Descending Indianapolis Center
Thu 06:54:41 PM 36.0911 -83.6892 223° Southwest 248 285 4,700 -1,333 Descending Atlanta Center
Thu 06:55:41 PM 36.0453 -83.7408 222° Southwest 236 272 4,000 -545 Descending Atlanta Center
Thu 06:56:42 PM 35.9975 -83.7847 217° Southwest 231 266 3,600 -645 Descending Atlanta Center
Thu 06:57:42 PM 35.9539 -83.8233 216° Southwest 220 253 2,700 -454 Descending Atlanta Center
Thu 06:58:41 PM 35.9142 -83.8644 220° Southwest 201 231 2,700  Level Atlanta Center

Login

Don't have an account? Register now (free) for customized features, flight alerts, and more!